Time;durP1;ratioP1;P1;durP2;ratioP2;P2;SDS_P1;SDS_P2;PMS_P1;PMS_P2;Temp;Humidity;BMP_temperature;BMP_pressure;BME280_temperature;BME280_humidity;BME280_pressure;Samples;Min_cycle;Max_cycle;Signal;HPM_P1;HPM_P2
2024/01/10 00:01:17;;;;;;;36.78;12.52;;;6.60;99.90;;;;;;5013907;28;20053;-80
2024/01/10 00:03:43;;;;;;;37.85;12.05;;;6.60;99.90;;;;;;5017403;28;20028;-80
2024/01/10 00:06:10;;;;;;;26.80;11.35;;;6.60;99.90;;;;;;5035334;28;20049;-80
2024/01/10 00:08:36;;;;;;;36.30;12.27;;;6.60;99.90;;;;;;5015781;28;20045;-79
2024/01/10 00:11:01;;;;;;;27.42;11.57;;;6.60;99.90;;;;;;5017018;28;20416;-80
2024/01/10 00:13:27;;;;;;;34.22;12.07;;;6.60;99.90;;;;;;5014532;28;20029;-80
2024/01/10 00:15:55;;;;;;;29.20;13.30;;;6.60;99.90;;;;;;5012134;28;20026;-79
2024/01/10 00:18:21;;;;;;;24.52;11.07;;;6.60;99.90;;;;;;5016377;28;20037;-80
2024/01/10 00:20:47;;;;;;;27.33;12.27;;;6.60;99.90;;;;;;5035929;28;20091;-79
2024/01/10 00:23:13;;;;;;;37.97;13.88;;;6.60;99.90;;;;;;5015547;28;20096;-80
2024/01/10 00:25:38;;;;;;;27.70;13.10;;;6.60;99.90;;;;;;5010512;28;20025;-79
2024/01/10 00:28:05;;;;;;;32.60;12.50;;;6.60;99.90;;;;;;5026809;28;20021;-79
2024/01/10 00:30:30;;;;;;;28.20;11.73;;;6.60;99.90;;;;;;5016338;28;20021;-79
2024/01/10 00:32:56;;;;;;;30.13;12.00;;;6.60;99.90;;;;;;5036049;28;20017;-80
2024/01/10 00:35:22;;;;;;;28.83;12.30;;;6.60;99.90;;;;;;5012311;28;20510;-80
2024/01/10 00:37:47;;;;;;;33.75;12.75;;;6.50;99.90;;;;;;5032361;28;20021;-80
2024/01/10 00:40:13;;;;;;;32.60;13.27;;;6.50;99.90;;;;;;5027978;28;20043;-80
2024/01/10 00:42:38;;;;;;;36.20;13.88;;;6.60;99.90;;;;;;5015393;28;20115;-80
2024/01/10 00:45:04;;;;;;;39.63;13.45;;;6.50;99.90;;;;;;5018175;28;20056;-80
2024/01/10 00:47:30;;;;;;;32.78;14.20;;;6.50;99.90;;;;;;5034099;28;20024;-80
2024/01/10 00:49:56;;;;;;;30.85;13.50;;;6.50;99.90;;;;;;5014189;28;20033;-80
2024/01/10 00:52:21;;;;;;;39.50;14.50;;;6.60;99.90;;;;;;5033148;28;20033;-79
2024/01/10 00:54:47;;;;;;;35.25;13.32;;;6.60;99.90;;;;;;5021109;28;20024;-79
2024/01/10 00:57:13;;;;;;;31.35;11.82;;;6.60;99.90;;;;;;5018015;28;20021;-80
2024/01/10 00:59:38;;;;;;;33.08;14.38;;;6.60;99.90;;;;;;5014446;28;20021;-80
2024/01/10 01:02:04;;;;;;;37.65;12.77;;;6.60;99.90;;;;;;5031449;28;20710;-80
2024/01/10 01:04:29;;;;;;;33.85;12.73;;;6.60;99.90;;;;;;5013198;28;20476;-79
2024/01/10 01:06:55;;;;;;;38.83;13.98;;;6.60;99.90;;;;;;5012470;28;20439;-80
2024/01/10 01:09:21;;;;;;;29.75;12.57;;;6.60;99.90;;;;;;5034941;28;20672;-80
2024/01/10 01:11:46;;;;;;;28.08;12.50;;;6.50;99.90;;;;;;5032774;28;20506;-80
2024/01/10 01:14:12;;;;;;;32.83;12.30;;;6.50;99.90;;;;;;5014848;28;20550;-80
2024/01/10 01:16:37;;;;;;;38.80;13.35;;;6.50;99.90;;;;;;5009519;28;20026;-79
2024/01/10 01:19:03;;;;;;;32.60;13.32;;;6.50;99.90;;;;;;5016085;28;20523;-80
2024/01/10 01:21:28;;;;;;;27.33;12.30;;;6.60;99.90;;;;;;5018203;28;20500;-79
2024/01/10 01:23:54;;;;;;;32.40;12.50;;;6.60;99.90;;;;;;5031746;28;20567;-79
2024/01/10 01:26:20;;;;;;;38.03;13.88;;;6.60;99.90;;;;;;5012712;28;20024;-80
2024/01/10 01:28:45;;;;;;;36.10;13.10;;;6.60;99.90;;;;;;5012113;28;20535;-80
2024/01/10 01:31:11;;;;;;;32.80;13.20;;;6.50;99.90;;;;;;5034005;28;20055;-79
2024/01/10 01:33:38;;;;;;;33.10;14.00;;;6.50;99.90;;;;;;5019503;28;20025;-80
2024/01/10 01:36:05;;;;;;;38.90;13.70;;;6.50;99.90;;;;;;5020159;28;20028;-80
2024/01/10 01:38:30;;;;;;;34.38;13.88;;;6.50;99.90;;;;;;5036667;28;20538;-80
2024/01/10 01:40:56;;;;;;;33.25;12.95;;;6.50;99.90;;;;;;5033790;28;20032;-80
2024/01/10 01:43:25;;;;;;;34.03;13.57;;;6.50;99.90;;;;;;5037060;28;20010;-80
2024/01/10 01:45:53;;;;;;;28.23;13.27;;;6.50;99.90;;;;;;5036850;28;20044;-80
2024/01/10 01:48:24;;;;;;;35.30;13.68;;;6.50;99.90;;;;;;5019056;28;20116;-80
2024/01/10 01:50:58;;;;;;;37.50;14.52;;;6.50;99.90;;;;;;5036126;28;20040;-80
2024/01/10 01:53:24;;;;;;;31.98;13.18;;;6.60;99.90;;;;;;5015953;28;20456;-80
2024/01/10 01:55:50;;;;;;;34.10;13.43;;;6.50;99.90;;;;;;5019302;28;20056;-81
2024/01/10 01:58:17;;;;;;;35.28;13.70;;;6.50;99.90;;;;;;5016268;28;20021;-80
2024/01/10 02:00:43;;;;;;;35.78;13.82;;;6.50;99.90;;;;;;5019370;28;20036;-80
2024/01/10 02:03:09;;;;;;;32.63;13.82;;;6.50;99.90;;;;;;5017356;28;20434;-80
2024/01/10 02:05:36;;;;;;;38.00;12.90;;;6.60;99.90;;;;;;5016383;28;20480;-79
2024/01/10 02:08:01;;;;;;;34.42;14.13;;;6.60;99.90;;;;;;5019239;28;20036;-79
2024/01/10 02:10:27;;;;;;;30.77;14.07;;;6.50;99.90;;;;;;5018272;28;20014;-80
2024/01/10 02:12:53;;;;;;;30.67;13.90;;;6.50;99.90;;;;;;5015927;28;20088;-79
2024/01/10 02:15:18;;;;;;;32.95;13.02;;;6.50;99.90;;;;;;5016857;28;20036;-79
2024/01/10 02:17:44;;;;;;;28.80;12.25;;;6.50;99.90;;;;;;5033969;28;20025;-80
2024/01/10 02:20:16;;;;;;;33.83;13.10;;;6.50;99.90;;;;;;5019009;28;20480;-79
2024/01/10 02:22:42;;;;;;;30.50;13.30;;;6.50;99.90;;;;;;5021351;28;20021;-79
2024/01/10 02:25:09;;;;;;;32.17;11.98;;;6.50;99.90;;;;;;5019589;28;20021;-80
2024/01/10 02:27:35;;;;;;;31.95;12.23;;;6.50;99.90;;;;;;5017521;28;21506;-81
2024/01/10 02:30:03;;;;;;;32.38;12.32;;;6.50;99.90;;;;;;5033852;28;20044;-80
2024/01/10 02:32:28;;;;;;;28.42;12.02;;;6.50;99.90;;;;;;5017016;28;20022;-80
2024/01/10 02:34:54;;;;;;;28.80;12.13;;;6.50;99.90;;;;;;5016597;28;20028;-80
2024/01/10 02:37:19;;;;;;;28.58;11.65;;;6.50;99.90;;;;;;5020254;28;20029;-79
2024/01/10 02:39:45;;;;;;;29.58;12.52;;;6.50;99.90;;;;;;5016309;28;20022;-80
2024/01/10 02:42:11;;;;;;;26.58;11.40;;;6.50;99.90;;;;;;5016025;28;20029;-80
2024/01/10 02:44:37;;;;;;;23.88;11.85;;;6.50;99.90;;;;;;5034363;28;20853;-80
2024/01/10 02:47:02;;;;;;;25.25;10.65;;;6.50;99.90;;;;;;5018226;28;20549;-80
2024/01/10 02:49:28;;;;;;;29.40;11.73;;;6.50;99.90;;;;;;5036704;28;20044;-80
2024/01/10 02:51:53;;;;;;;31.13;12.55;;;6.50;99.90;;;;;;5015957;28;20678;-79
2024/01/10 02:54:19;;;;;;;32.50;12.30;;;6.50;99.90;;;;;;5015424;28;20695;-80
2024/01/10 02:56:44;;;;;;;30.42;11.48;;;6.50;99.90;;;;;;5032384;28;20471;-80
2024/01/10 02:59:10;;;;;;;31.10;11.95;;;6.50;99.90;;;;;;5032321;28;20515;-80
2024/01/10 03:01:35;;;;;;;26.27;11.52;;;6.50;99.90;;;;;;5016870;28;20037;-80
2024/01/10 03:04:01;;;;;;;29.92;11.50;;;6.50;99.90;;;;;;5017593;28;20534;-80
2024/01/10 03:06:26;;;;;;;26.20;12.73;;;6.50;99.90;;;;;;5016143;28;20438;-80
2024/01/10 03:08:57;;;;;;;31.80;12.15;;;6.50;99.90;;;;;;5014874;28;20029;-80
2024/01/10 03:11:23;;;;;;;28.80;11.57;;;6.50;99.90;;;;;;5035168;28;20048;-79
2024/01/10 03:14:01;;;;;;;31.77;11.48;;;6.50;99.90;;;;;;5021068;28;20017;-80
2024/01/10 03:16:26;;;;;;;25.58;10.77;;;6.50;99.90;;;;;;5016685;28;20037;-80
2024/01/10 03:18:52;;;;;;;31.33;11.40;;;6.50;99.90;;;;;;5015883;28;20013;-80
2024/01/10 03:21:24;;;;;;;25.08;11.50;;;6.50;99.90;;;;;;5031956;28;20083;-81
2024/01/10 03:23:55;;;;;;;37.80;12.80;;;6.50;99.90;;;;;;5017206;28;20056;-80
2024/01/10 03:26:20;;;;;;;32.80;12.25;;;6.50;99.90;;;;;;5014409;28;20052;-80
2024/01/10 03:28:46;;;;;;;31.63;11.98;;;6.40;99.90;;;;;;5013955;28;20472;-79
2024/01/10 03:31:12;;;;;;;32.78;13.25;;;6.40;99.90;;;;;;5032660;28;20018;-80
2024/01/10 03:33:38;;;;;;;24.70;11.57;;;6.40;99.90;;;;;;5038105;28;20063;-81
2024/01/10 03:36:04;;;;;;;29.10;12.25;;;6.40;99.90;;;;;;5020693;28;20071;-80
2024/01/10 03:38:30;;;;;;;28.67;10.02;;;6.40;99.90;;;;;;5016076;28;20029;-80
2024/01/10 03:40:56;;;;;;;26.27;11.95;;;6.40;99.90;;;;;;5033195;28;20118;-80
2024/01/10 03:43:21;;;;;;;30.13;12.07;;;6.40;99.90;;;;;;5014086;28;20106;-80
2024/01/10 03:45:47;;;;;;;33.47;12.68;;;6.50;99.90;;;;;;5013227;28;20013;-80
2024/01/10 03:48:12;;;;;;;30.33;11.88;;;6.50;99.90;;;;;;5013259;28;20022;-80
2024/01/10 03:50:38;;;;;;;33.38;11.73;;;6.40;99.90;;;;;;5036577;28;20453;-80
2024/01/10 03:53:03;;;;;;;31.23;11.95;;;6.40;99.90;;;;;;5015187;28;20025;-80
2024/01/10 03:55:29;;;;;;;25.33;11.20;;;6.50;99.90;;;;;;5031592;28;20018;-80
2024/01/10 03:57:56;;;;;;;30.05;11.75;;;6.50;99.90;;;;;;5016414;28;20028;-80
2024/01/10 04:00:21;;;;;;;29.25;12.27;;;6.50;99.90;;;;;;5030999;28;20083;-79
2024/01/10 04:02:47;;;;;;;25.33;11.88;;;6.50;99.90;;;;;;5018056;28;20502;-80
2024/01/10 04:05:13;;;;;;;25.02;11.48;;;6.40;99.90;;;;;;5016698;28;20017;-80
2024/01/10 04:07:43;;;;;;;33.65;12.77;;;6.40;99.90;;;;;;5013761;28;20014;-80
2024/01/10 04:10:13;;;;;;;30.30;11.75;;;6.50;99.90;;;;;;5013778;28;20030;-79
2024/01/10 04:12:40;;;;;;;23.67;11.15;;;6.40;99.90;;;;;;5021894;28;20407;-79
2024/01/10 04:15:06;;;;;;;23.27;11.80;;;6.40;99.90;;;;;;5034515;28;20025;-80
2024/01/10 04:17:31;;;;;;;23.83;11.15;;;6.40;99.90;;;;;;5030415;28;20523;-80
2024/01/10 04:19:57;;;;;;;30.35;12.45;;;6.40;99.90;;;;;;5032244;28;20096;-80
2024/01/10 04:22:26;;;;;;;29.23;11.15;;;6.40;99.90;;;;;;5016463;28;20075;-80
2024/01/10 04:24:52;;;;;;;29.35;12.75;;;6.40;99.90;;;;;;5027289;28;20080;-80
2024/01/10 04:27:18;;;;;;;31.65;12.07;;;6.40;99.90;;;;;;5032086;28;20022;-81
2024/01/10 04:29:46;;;;;;;30.13;13.30;;;6.40;99.90;;;;;;5015062;28;20131;-80
2024/01/10 04:32:12;;;;;;;32.58;11.85;;;6.40;99.90;;;;;;5011980;28;20033;-80
2024/01/10 04:34:37;;;;;;;25.20;11.13;;;6.50;99.90;;;;;;5012185;28;20472;-80
2024/01/10 04:37:03;;;;;;;29.85;12.30;;;6.40;99.90;;;;;;5014592;28;20061;-80
2024/01/10 04:39:29;;;;;;;30.63;12.55;;;6.40;99.90;;;;;;5012253;28;20029;-80
2024/01/10 04:41:55;;;;;;;36.25;13.25;;;6.40;99.90;;;;;;5015896;28;20021;-80
2024/01/10 04:44:20;;;;;;;30.20;12.52;;;6.40;99.90;;;;;;5014054;28;20047;-80
2024/01/10 04:46:46;;;;;;;30.98;12.73;;;6.40;99.90;;;;;;5030743;28;20376;-79
2024/01/10 04:49:12;;;;;;;40.40;13.82;;;6.40;99.90;;;;;;5012070;28;20526;-80
2024/01/10 04:51:37;;;;;;;30.92;12.65;;;6.40;99.90;;;;;;5015363;28;20022;-80
2024/01/10 04:54:03;;;;;;;31.05;12.15;;;6.50;99.90;;;;;;5014344;28;20112;-81
2024/01/10 04:56:29;;;;;;;31.00;12.40;;;6.40;99.90;;;;;;5029105;28;20022;-79
2024/01/10 04:58:54;;;;;;;33.45;12.55;;;6.40;99.90;;;;;;5013060;28;20022;-79
2024/01/10 05:01:20;;;;;;;29.20;12.07;;;6.50;99.90;;;;;;5011343;28;20029;-80
2024/01/10 05:03:45;;;;;;;31.88;12.40;;;6.40;99.90;;;;;;5015065;28;20021;-80
2024/01/10 05:06:11;;;;;;;30.25;12.85;;;6.40;99.90;;;;;;5033702;28;20514;-80
2024/01/10 05:08:37;;;;;;;23.92;11.35;;;6.40;99.90;;;;;;5031556;28;20014;-80
2024/01/10 05:11:02;;;;;;;29.95;12.60;;;6.40;99.90;;;;;;5012285;28;20494;-81
2024/01/10 05:13:28;;;;;;;36.80;14.52;;;6.40;99.90;;;;;;5028828;28;20033;-80
2024/01/10 05:15:54;;;;;;;35.17;13.00;;;6.40;99.90;;;;;;5012966;28;20643;-81
2024/01/10 05:18:21;;;;;;;33.60;13.02;;;6.40;99.90;;;;;;5014103;28;20040;-80
2024/01/10 05:20:46;;;;;;;33.08;13.68;;;6.40;99.90;;;;;;5028775;28;20029;-80
2024/01/10 05:23:12;;;;;;;35.00;14.52;;;6.40;99.90;;;;;;5012904;28;20018;-80
2024/01/10 05:25:38;;;;;;;38.38;15.27;;;6.40;99.90;;;;;;5015098;28;20101;-80
2024/01/10 05:28:03;;;;;;;34.88;15.02;;;6.40;99.90;;;;;;5015657;28;20029;-80
2024/01/10 05:30:29;;;;;;;35.83;14.05;;;6.40;99.90;;;;;;5030181;28;20037;-80
2024/01/10 05:32:55;;;;;;;40.70;15.75;;;6.40;99.90;;;;;;5014509;28;20017;-80
2024/01/10 05:35:20;;;;;;;37.90;15.15;;;6.40;99.90;;;;;;5012154;28;20014;-79
2024/01/10 05:37:46;;;;;;;41.15;14.75;;;6.40;99.90;;;;;;5008265;28;20419;-80
2024/01/10 05:40:12;;;;;;;39.42;16.13;;;6.40;99.90;;;;;;5017225;28;20025;-80
2024/01/10 05:42:37;;;;;;;39.97;15.60;;;6.40;99.90;;;;;;5016934;28;20025;-79
2024/01/10 05:45:04;;;;;;;42.03;15.80;;;6.40;99.90;;;;;;5031802;28;20430;-81
2024/01/10 05:47:30;;;;;;;35.53;15.35;;;6.40;99.90;;;;;;5024971;28;20017;-80
2024/01/10 05:49:55;;;;;;;37.15;14.88;;;6.40;99.90;;;;;;5028428;28;20100;-80
2024/01/10 05:52:22;;;;;;;39.63;15.88;;;6.40;99.90;;;;;;5014763;28;20022;-80
2024/01/10 05:54:48;;;;;;;40.20;15.30;;;6.40;99.90;;;;;;5033527;28;20028;-80
2024/01/10 05:57:14;;;;;;;42.35;15.40;;;6.40;99.90;;;;;;5012652;28;20028;-80
2024/01/10 05:59:40;;;;;;;39.00;16.35;;;6.40;99.90;;;;;;5030317;28;20200;-80
2024/01/10 06:02:05;;;;;;;42.92;16.05;;;6.40;99.90;;;;;;5028615;28;20068;-79
2024/01/10 06:04:31;;;;;;;39.80;16.63;;;6.40;99.90;;;;;;5013604;28;20029;-80
2024/01/10 06:07:01;;;;;;;38.00;14.98;;;6.40;99.90;;;;;;5013459;28;20026;-80
2024/01/10 06:09:27;;;;;;;49.10;15.98;;;6.40;99.90;;;;;;5014573;28;20048;-80
2024/01/10 06:11:53;;;;;;;46.72;16.65;;;6.40;99.90;;;;;;5030397;28;20061;-81
2024/01/10 06:14:18;;;;;;;48.40;15.80;;;6.40;99.90;;;;;;5031392;28;20024;-80
2024/01/10 06:16:44;;;;;;;46.60;16.20;;;6.40;99.90;;;;;;5011918;28;20049;-80
2024/01/10 06:19:11;;;;;;;33.75;14.93;;;6.40;99.90;;;;;;5015558;28;20033;-79
2024/01/10 06:21:37;;;;;;;36.42;16.63;;;6.40;99.90;;;;;;5014793;28;20029;-80
2024/01/10 06:24:02;;;;;;;39.78;16.02;;;6.40;99.90;;;;;;5015683;28;20021;-80
2024/01/10 06:26:28;;;;;;;54.00;16.20;;;6.40;99.90;;;;;;5029822;28;20022;-81
2024/01/10 06:28:54;;;;;;;41.58;15.77;;;6.40;99.90;;;;;;5037126;28;20683;-81
2024/01/10 06:31:20;;;;;;;42.58;15.75;;;6.40;99.90;;;;;;5033427;28;20026;-81
2024/01/10 06:33:46;;;;;;;49.83;16.88;;;6.40;99.90;;;;;;5035579;28;20066;-81
2024/01/10 06:36:11;;;;;;;43.58;16.77;;;6.40;99.90;;;;;;5035138;28;20026;-80
2024/01/10 06:38:39;;;;;;;43.58;16.92;;;6.40;99.90;;;;;;5032224;28;20021;-80
2024/01/10 06:41:13;;;;;;;43.78;17.10;;;6.40;99.90;;;;;;5031311;28;20033;-80
2024/01/10 06:43:39;;;;;;;42.20;15.68;;;6.40;99.90;;;;;;5016888;28;20070;-79
2024/01/10 06:46:05;;;;;;;42.47;16.40;;;6.40;99.90;;;;;;5030056;28;20462;-80
2024/01/10 06:48:31;;;;;;;42.95;16.25;;;6.40;99.90;;;;;;5015484;28;20022;-80
2024/01/10 06:50:57;;;;;;;42.17;15.25;;;6.40;99.90;;;;;;5034333;28;20105;-79
2024/01/10 06:53:23;;;;;;;38.85;16.45;;;6.40;99.90;;;;;;5017219;28;20164;-80
2024/01/10 06:55:48;;;;;;;52.38;17.48;;;6.40;99.90;;;;;;5020271;28;20033;-79
2024/01/10 06:58:14;;;;;;;42.08;17.30;;;6.40;99.90;;;;;;5033002;28;20120;-79
2024/01/10 07:00:39;;;;;;;46.90;16.05;;;6.40;99.90;;;;;;5032505;28;20030;-81
2024/01/10 07:03:05;;;;;;;38.28;15.10;;;6.40;99.90;;;;;;5019052;28;20044;-80
2024/01/10 07:05:31;;;;;;;37.28;15.93;;;6.40;99.90;;;;;;5012523;28;20106;-80
2024/01/10 07:07:58;;;;;;;48.78;16.60;;;6.40;99.90;;;;;;5016404;28;20021;-81
2024/01/10 07:10:27;;;;;;;43.30;16.30;;;6.40;99.90;;;;;;5034037;28;20022;-80
2024/01/10 07:12:53;;;;;;;38.35;16.13;;;6.40;99.90;;;;;;5013449;28;20029;-80
2024/01/10 07:15:19;;;;;;;38.92;14.98;;;6.40;99.90;;;;;;5033410;28;20025;-81
2024/01/10 07:17:45;;;;;;;44.13;15.98;;;6.40;99.90;;;;;;5014985;28;20028;-80
2024/01/10 07:20:12;;;;;;;33.40;15.23;;;6.40;99.90;;;;;;5031967;28;20096;-81
2024/01/10 07:22:41;;;;;;;40.78;15.15;;;6.30;99.90;;;;;;5019607;28;20071;-80
2024/01/10 07:25:07;;;;;;;39.20;14.85;;;6.40;99.90;;;;;;5032799;28;20543;-81
2024/01/10 07:27:33;;;;;;;35.97;14.68;;;6.40;99.90;;;;;;5024301;28;20021;-81
2024/01/10 07:29:59;;;;;;;38.15;14.88;;;6.30;99.90;;;;;;5009778;28;20506;-81
2024/01/10 07:32:24;;;;;;;40.47;15.43;;;6.30;99.90;;;;;;5030421;28;20104;-81
2024/01/10 07:34:50;;;;;;;34.53;14.85;;;6.40;99.90;;;;;;5031265;28;20076;-81
2024/01/10 07:37:20;;;;;;;42.08;15.32;;;6.40;99.90;;;;;;5015267;28;20025;-79
2024/01/10 07:39:46;;;;;;;;;;;6.40;99.90;;;;;;5027938;28;20017;-80
2024/01/10 07:42:12;;;;;;;33.28;14.10;;;6.40;99.90;;;;;;5016658;28;19991;-80
2024/01/10 07:44:37;;;;;;;39.97;14.98;;;6.40;99.90;;;;;;5032842;28;20101;-80
2024/01/10 07:47:03;;;;;;;34.40;14.07;;;6.30;99.90;;;;;;5031613;28;20032;-80
2024/01/10 07:49:29;;;;;;;38.70;15.20;;;6.40;99.90;;;;;;5030915;28;20018;-81
2024/01/10 07:51:55;;;;;;;36.42;14.77;;;6.40;99.90;;;;;;5015468;28;20411;-79
2024/01/10 07:54:21;;;;;;;38.40;15.05;;;6.30;99.90;;;;;;5031434;28;20021;-80
2024/01/10 07:56:46;;;;;;;34.97;14.40;;;6.30;99.90;;;;;;5012512;28;20494;-80
2024/01/10 07:59:15;;;;;;;33.70;15.20;;;6.40;99.90;;;;;;5032191;28;20022;-80
2024/01/10 08:01:44;;;;;;;39.22;15.80;;;6.30;99.90;;;;;;5013003;28;20526;-79
2024/01/10 08:04:10;;;;;;;40.95;15.32;;;6.40;99.90;;;;;;5011430;28;20022;-80
2024/01/10 08:06:36;;;;;;;36.90;14.80;;;6.40;99.90;;;;;;5016149;28;20022;-80
2024/01/10 08:09:04;;;;;;;34.20;14.02;;;6.30;99.90;;;;;;5029507;28;20484;-81
2024/01/10 08:11:29;;;;;;;33.78;14.18;;;6.40;99.90;;;;;;5031171;28;20400;-80
2024/01/10 08:13:55;;;;;;;43.50;16.17;;;6.30;99.90;;;;;;5014683;28;20026;-81
2024/01/10 08:16:21;;;;;;;42.78;15.57;;;6.40;99.90;;;;;;5007766;28;20538;-81
2024/01/10 08:18:46;;;;;;;34.65;15.65;;;6.40;99.90;;;;;;5012392;28;20104;-80
2024/01/10 08:21:12;;;;;;;40.10;14.13;;;6.40;99.90;;;;;;5014243;28;20017;-80
2024/01/10 08:23:37;;;;;;;40.83;15.80;;;6.40;99.90;;;;;;5014635;28;20519;-80
2024/01/10 08:26:08;;;;;;;40.58;14.30;;;6.40;99.90;;;;;;5014045;28;20651;-80
2024/01/10 08:28:33;;;;;;;43.05;14.85;;;6.40;99.90;;;;;;5030750;28;20028;-80
2024/01/10 08:30:59;;;;;;;40.92;14.90;;;6.40;99.90;;;;;;5013927;28;20033;-80
2024/01/10 08:33:25;;;;;;;35.95;14.88;;;6.40;99.90;;;;;;5015554;28;20522;-79
2024/01/10 08:35:50;;;;;;;42.13;15.95;;;6.40;99.90;;;;;;5014934;28;20060;-79
2024/01/10 08:38:16;;;;;;;38.33;14.20;;;6.40;99.90;;;;;;5029124;28;20403;-80
2024/01/10 08:40:41;;;;;;;41.78;16.23;;;6.40;99.90;;;;;;5014374;28;20098;-83
2024/01/10 08:43:07;;;;;;;39.22;15.43;;;6.40;99.90;;;;;;5031331;28;20062;-79
2024/01/10 08:45:32;;;;;;;39.22;16.67;;;6.40;99.90;;;;;;5011022;28;20039;-80
2024/01/10 08:47:59;;;;;;;49.50;17.10;;;6.40;99.90;;;;;;5012918;28;20025;-81
2024/01/10 08:50:24;;;;;;;33.88;14.80;;;6.50;99.90;;;;;;5013303;28;20108;-80
2024/01/10 08:52:50;;;;;;;33.42;14.85;;;6.40;99.90;;;;;;5026600;28;20104;-79
2024/01/10 08:55:15;;;;;;;36.00;15.10;;;6.50;99.90;;;;;;5015416;28;20029;-80
2024/01/10 08:57:41;;;;;;;39.35;15.77;;;6.50;99.90;;;;;;5012870;28;20061;-81
2024/01/10 09:00:11;;;;;;;39.53;14.75;;;6.50;99.90;;;;;;5027143;28;20033;-81
2024/01/10 09:02:37;;;;;;;47.88;17.38;;;6.50;99.90;;;;;;5030213;28;20076;-80
2024/01/10 09:05:03;;;;;;;34.53;15.95;;;6.60;99.90;;;;;;5012078;28;20030;-80
2024/01/10 09:07:30;;;;;;;36.72;15.77;;;6.50;99.90;;;;;;5026815;28;20028;-81
2024/01/10 09:09:55;;;;;;;47.50;16.13;;;6.50;99.90;;;;;;5027479;28;20009;-81
2024/01/10 09:12:21;;;;;;;43.58;17.77;;;6.50;99.90;;;;;;5027095;28;20652;-82
2024/01/10 09:14:46;;;;;;;44.92;16.98;;;6.60;99.90;;;;;;5013335;28;20123;-80
2024/01/10 09:17:12;;;;;;;39.42;16.02;;;6.60;99.90;;;;;;5013229;28;20034;-81
2024/01/10 09:19:38;;;;;;;40.45;16.73;;;6.50;99.90;;;;;;5010949;28;20029;-80
2024/01/10 09:22:04;;;;;;;43.10;16.73;;;6.50;99.90;;;;;;5014377;28;20026;-80
2024/01/10 09:24:29;;;;;;;41.25;17.13;;;6.50;99.90;;;;;;5016184;28;20034;-81
2024/01/10 09:26:55;;;;;;;50.70;18.35;;;6.50;99.90;;;;;;5029034;28;20017;-81
2024/01/10 09:29:23;;;;;;;44.70;16.48;;;6.50;99.90;;;;;;5030071;28;20112;-81
2024/01/10 09:31:49;;;;;;;54.05;17.55;;;6.50;99.90;;;;;;5027601;28;20105;-79
2024/01/10 09:34:14;;;;;;;47.10;17.52;;;6.50;99.90;;;;;;5013262;28;20113;-80
2024/01/10 09:36:40;;;;;;;46.28;16.55;;;6.50;99.90;;;;;;5012740;28;20087;-81
2024/01/10 09:39:11;;;;;;;42.05;18.17;;;6.50;99.90;;;;;;5016774;28;20034;-80
2024/01/10 09:41:48;;;;;;;42.83;17.13;;;6.50;99.90;;;;;;5029348;28;20029;-81
2024/01/10 09:44:17;;;;;;;47.42;18.20;;;6.60;99.90;;;;;;5014796;28;20037;-81
2024/01/10 09:46:47;;;;;;;43.85;17.48;;;6.50;99.90;;;;;;5012287;28;20072;-81
2024/01/10 09:49:13;;;;;;;43.17;17.45;;;6.50;99.90;;;;;;5009922;28;20022;-80
2024/01/10 09:51:39;;;;;;;46.17;17.27;;;6.50;99.90;;;;;;5013052;28;20036;-81
2024/01/10 09:54:05;;;;;;;47.80;17.83;;;6.60;99.90;;;;;;5013889;28;20061;-80
2024/01/10 09:56:32;;;;;;;48.22;19.33;;;6.60;99.90;;;;;;5033238;28;20071;-81
2024/01/10 09:59:00;;;;;;;44.05;18.58;;;6.60;99.90;;;;;;5030459;28;20041;-80
2024/01/10 10:01:26;;;;;;;56.50;18.83;;;6.60;99.90;;;;;;5013139;28;20021;-80
2024/01/10 10:03:56;;;;;;;51.83;19.77;;;6.60;99.90;;;;;;5017521;28;20060;-81
2024/01/10 10:06:22;;;;;;;48.50;17.65;;;6.50;99.90;;;;;;5034981;28;20024;-80
2024/01/10 10:08:47;;;;;;;47.13;17.13;;;6.60;99.90;;;;;;5035001;28;20021;-80
2024/01/10 10:11:16;;;;;;;47.63;19.15;;;6.50;99.90;;;;;;5013665;28;20044;-81
2024/01/10 10:13:42;;;;;;;50.90;18.50;;;6.50;99.90;;;;;;5032075;28;20036;-80
2024/01/10 10:16:12;;;;;;;50.47;20.02;;;6.50;99.90;;;;;;5015736;28;20029;-80
2024/01/10 10:18:39;;;;;;;53.67;18.67;;;6.50;99.90;;;;;;5012321;28;20029;-80
2024/01/10 10:21:13;;;;;;;50.53;18.35;;;6.60;99.90;;;;;;5033679;28;20038;-80
2024/01/10 10:23:40;;;;;;;51.28;18.05;;;6.60;99.90;;;;;;5029245;28;20105;-80
2024/01/10 10:26:19;;;;;;;51.75;17.75;;;6.60;99.90;;;;;;5013495;28;20041;-81
2024/01/10 10:28:48;;;;;;;51.95;17.88;;;6.60;99.90;;;;;;5029822;28;20040;-80
2024/01/10 10:31:16;;;;;;;54.63;18.67;;;6.60;99.90;;;;;;5033982;28;20038;-80
2024/01/10 10:33:43;;;;;;;55.97;17.92;;;6.60;99.90;;;;;;5017122;28;20025;-80
2024/01/10 10:36:09;;;;;;;51.28;18.55;;;6.60;99.90;;;;;;5029707;28;20036;-80
2024/01/10 10:38:36;;;;;;;50.72;17.63;;;6.60;99.90;;;;;;5028478;28;20021;-80
2024/01/10 10:41:13;;;;;;;47.60;18.13;;;6.60;99.90;;;;;;5015733;28;20048;-80
2024/01/10 10:43:39;;;;;;;45.53;17.58;;;6.60;99.90;;;;;;5030967;28;20095;-80
2024/01/10 10:46:07;;;;;;;48.08;17.60;;;6.60;99.90;;;;;;5015768;28;20029;-80
2024/01/10 10:48:36;;;;;;;46.88;16.38;;;6.60;99.90;;;;;;5031603;28;20535;-80
2024/01/10 10:51:15;;;;;;;40.50;16.90;;;6.60;99.90;;;;;;5027838;28;20033;-80
2024/01/10 10:53:45;;;;;;;47.53;16.30;;;6.60;99.90;;;;;;5015461;28;20029;-81
2024/01/10 10:56:12;;;;;;;41.93;15.60;;;6.60;99.90;;;;;;5016113;28;20041;-81
2024/01/10 10:58:43;;;;;;;49.75;17.02;;;6.60;99.90;;;;;;5032561;28;20268;-81
2024/01/10 11:01:10;;;;;;;46.47;14.73;;;6.60;99.90;;;;;;5029247;28;20383;-80
2024/01/10 11:03:39;;;;;;;52.05;16.27;;;6.60;99.90;;;;;;5031534;28;20021;-80
2024/01/10 11:06:05;;;;;;;22.05;8.90;;;6.60;99.90;;;;;;5010987;28;20396;-79
2024/01/10 11:08:42;;;;;;;23.95;9.18;;;8.90;99.90;;;;;;5011447;28;20040;-79
2024/01/10 11:11:21;;;;;;;24.55;9.48;;;10.30;99.90;;;;;;5027737;28;20677;-80
2024/01/10 11:14:15;;;;;;;27.70;10.77;;;10.90;99.90;;;;;;5028065;28;20060;-79
2024/01/10 11:16:59;;;;;;;23.75;10.45;;;11.00;99.90;;;;;;5014990;28;20471;-80
2024/01/10 11:19:28;;;;;;;28.48;10.95;;;11.10;98.70;;;;;;5029063;28;20079;-79
2024/01/10 11:22:03;;;;;;;32.10;11.98;;;11.20;97.70;;;;;;5032990;28;20026;-80
2024/01/10 11:24:30;;;;;;;31.98;12.25;;;11.20;97.40;;;;;;5013631;28;20048;-79
2024/01/10 11:27:11;;;;;;;32.95;12.52;;;11.20;97.10;;;;;;5028223;28;20013;-80
2024/01/10 11:29:42;;;;;;;31.10;12.20;;;11.30;96.30;;;;;;5016474;28;20592;-79
2024/01/10 11:32:17;;;;;;;30.20;11.27;;;11.40;95.40;;;;;;5011457;28;20025;-79
2024/01/10 11:34:58;;;;;;;25.17;12.02;;;11.40;95.30;;;;;;5029122;28;20035;-79
2024/01/10 11:37:37;;;;;;;29.02;12.73;;;11.30;95.10;;;;;;5028234;28;20026;-79
2024/01/10 11:40:03;;;;;;;35.97;13.10;;;11.20;94.90;;;;;;5012266;28;20601;-79
2024/01/10 11:42:43;;;;;;;31.98;13.63;;;11.30;94.60;;;;;;5030919;28;20029;-79
2024/01/10 11:45:08;;;;;;;30.00;11.97;;;11.30;94.40;;;;;;5010345;28;20032;-79
2024/01/10 11:47:37;;;;;;;29.30;12.45;;;11.50;90.50;;;;;;5014019;28;20256;-80
2024/01/10 11:50:04;;;;;;;27.85;10.93;;;11.70;89.10;;;;;;5012962;28;20030;-79
2024/01/10 11:52:34;;;;;;;31.65;11.77;;;11.80;88.80;;;;;;5010352;28;20025;-80
2024/01/10 11:54:59;;;;;;;27.02;12.32;;;11.90;89.60;;;;;;5012799;28;20491;-79
2024/01/10 11:57:27;;;;;;;26.83;12.85;;;11.90;88.70;;;;;;5019055;28;20060;-80
2024/01/10 11:59:54;;;;;;;23.40;10.82;;;11.90;87.30;;;;;;5033910;28;20407;-79
2024/01/10 12:02:21;;;;;;;29.13;11.77;;;12.00;88.50;;;;;;5011742;28;20026;-79
2024/01/10 12:04:48;;;;;;;24.33;10.93;;;11.90;88.80;;;;;;5028294;28;20403;-80
2024/01/10 12:07:14;;;;;;;19.92;9.65;;;11.90;89.10;;;;;;5011642;28;20026;-78
2024/01/10 12:09:40;;;;;;;26.25;10.88;;;12.00;89.10;;;;;;5013366;28;20506;-79
2024/01/10 12:12:06;;;;;;;25.13;11.57;;;12.00;89.00;;;;;;5013068;28;20021;-79
2024/01/10 12:14:31;;;;;;;21.70;10.95;;;12.00;87.40;;;;;;5015363;28;20521;-80
2024/01/10 12:16:59;;;;;;;30.13;10.52;;;12.00;88.30;;;;;;5024349;28;20030;-79
2024/01/10 12:19:24;;;;;;;24.42;10.77;;;12.00;88.30;;;;;;5015693;28;20090;-78
2024/01/10 12:21:50;;;;;;;24.58;10.40;;;12.00;88.70;;;;;;5027354;28;20096;-81
2024/01/10 12:24:16;;;;;;;35.25;12.75;;;11.90;89.10;;;;;;5014641;28;20120;-80
2024/01/10 12:26:46;;;;;;;27.88;12.50;;;10.50;91.00;;;;;;5013570;28;20183;-81
2024/01/10 12:29:12;;;;;;;38.47;13.63;;;9.20;95.00;;;;;;5027032;28;20018;-80
2024/01/10 12:31:38;;;;;;;36.10;12.75;;;8.50;97.90;;;;;;5010993;28;20499;-81
2024/01/10 12:34:08;;;;;;;34.60;14.32;;;8.10;99.90;;;;;;5012909;28;20045;-80